Time;durP1;ratioP1;P1;durP2;ratioP2;P2;SDS_P1;SDS_P2;PMS_P1;PMS_P2;Temp;Humidity;BMP_temperature;BMP_pressure;BME280_temperature;BME280_humidity;BME280_pressure;Samples;Min_cycle;Max_cycle;Signal;HPM_P1;HPM_P2
2023/04/06 00:01:56;;;;;;;4.60;2.40;;;;;;;13.48;80.98;99116.59;108509;1281;21985;-67
2023/04/06 00:04:22;;;;;;;4.30;2.10;;;;;;;13.51;80.88;99113.27;108196;1281;21982;-67
2023/04/06 00:06:49;;;;;;;5.00;1.80;;;;;;;13.53;80.40;99111.96;108499;1281;21985;-71
2023/04/06 00:09:15;;;;;;;3.70;1.90;;;;;;;13.54;80.30;99112.60;108470;1281;21981;-66
2023/04/06 00:11:41;;;;;;;4.90;2.10;;;;;;;13.56;80.28;99107.43;108430;1281;21992;-65
2023/04/06 00:14:08;;;;;;;3.60;1.60;;;;;;;13.58;80.13;99107.84;108459;1281;21986;-71
2023/04/06 00:16:34;;;;;;;3.50;1.90;;;;;;;13.62;80.04;99103.30;108403;1281;21997;-69
2023/04/06 00:19:00;;;;;;;3.60;1.80;;;;;;;13.62;79.68;99102.04;108507;1281;23290;-73
2023/04/06 00:21:25;;;;;;;4.90;1.90;;;;;;;13.62;79.70;99104.86;108520;1281;22461;-66
2023/04/06 00:23:51;;;;;;;4.60;1.80;;;;;;;13.63;79.53;99103.77;108504;1281;22201;-72
2023/04/06 00:26:17;;;;;;;5.80;2.00;;;;;;;13.63;79.58;99099.51;108484;1281;21992;-67
2023/04/06 00:28:42;;;;;;;3.00;1.60;;;;;;;13.65;79.50;99103.65;108565;1281;22452;-65
2023/04/06 00:31:09;;;;;;;3.10;1.50;;;;;;;13.67;79.25;99102.70;108572;1280;21989;-71
2023/04/06 00:33:35;;;;;;;6.10;2.20;;;;;;;13.65;78.94;99104.71;108496;1281;21991;-71
2023/04/06 00:36:00;;;;;;;3.50;1.40;;;;;;;13.64;78.87;99100.36;108476;1281;21978;-66
2023/04/06 00:38:26;;;;;;;6.40;2.00;;;;;;;13.63;78.78;99100.05;108562;1281;21983;-72
2023/04/06 00:40:52;;;;;;;4.20;1.70;;;;;;;13.60;78.53;99099.66;108495;1281;21984;-66
2023/04/06 00:43:20;;;;;;;14.10;3.10;;;;;;;13.57;78.44;99101.39;108472;1274;23796;-66
2023/04/06 00:45:46;;;;;;;4.60;1.60;;;;;;;13.56;78.62;99102.13;108485;1277;22000;-66
2023/04/06 00:48:18;;;;;;;4.50;1.60;;;;;;;13.56;78.50;99098.93;108316;1281;21987;-66
2023/04/06 00:50:44;;;;;;;4.90;1.70;;;;;;;13.58;78.35;99098.19;108414;1273;22041;-67
2023/04/06 00:53:10;;;;;;;2.40;1.40;;;;;;;13.56;78.23;99091.55;108479;1281;21988;-72
2023/04/06 00:55:38;;;;;;;4.40;1.60;;;;;;;13.56;78.39;99088.93;108473;1282;21991;-72
2023/04/06 00:58:05;;;;;;;4.60;1.70;;;;;;;13.58;78.54;99088.48;108523;1281;22021;-72
2023/04/06 01:00:31;;;;;;;3.70;1.90;;;;;;;13.58;78.10;99085.13;108428;1281;21983;-66
2023/04/06 01:03:14;;;;;;;4.90;1.50;;;;;;;13.52;77.57;99084.83;108457;1282;21990;-65
2023/04/06 01:05:42;;;;;;;3.70;1.80;;;;;;;13.47;77.37;99087.73;108421;1282;22034;-66
2023/04/06 01:08:08;;;;;;;4.10;1.80;;;;;;;13.43;77.52;99085.29;108419;1281;23617;-72
2023/04/06 01:10:37;;;;;;;4.80;1.90;;;;;;;13.41;77.57;99080.40;108476;1281;23606;-67
2023/04/06 01:13:03;;;;;;;5.20;1.50;;;;;;;13.41;77.79;99083.76;108431;1276;24316;-67
2023/04/06 01:15:30;;;;;;;2.40;1.40;;;;;;;13.41;77.82;99082.52;108260;1272;22734;-72
2023/04/06 01:17:55;;;;;;;5.20;1.70;;;;;;;13.42;77.73;99079.52;108556;1281;22449;-73
2023/04/06 01:20:21;;;;;;;3.40;1.90;;;;;;;13.42;77.54;99081.45;108419;1282;21983;-73
2023/04/06 01:22:47;;;;;;;4.50;1.60;;;;;;;13.42;77.85;99081.42;108446;1269;21990;-66
2023/04/06 01:25:13;;;;;;;4.70;1.70;;;;;;;13.40;77.38;99084.48;108561;1281;21992;-66
2023/04/06 01:27:41;;;;;;;4.20;1.80;;;;;;;13.38;77.25;99084.20;108594;1281;23615;-66
2023/04/06 01:30:07;;;;;;;6.20;1.80;;;;;;;13.38;77.34;99082.60;108556;1281;22037;-66
2023/04/06 01:32:33;;;;;;;3.30;1.50;;;;;;;13.37;77.07;99078.45;107773;1281;1002589;-66
2023/04/06 01:35:00;;;;;;;4.70;1.50;;;;;;;13.32;76.66;99077.08;108456;1281;21981;-75
2023/04/06 01:37:25;;;;;;;4.60;1.80;;;;;;;13.28;76.84;99077.59;108446;1281;21981;-66
2023/04/06 01:39:52;;;;;;;4.60;1.40;;;;;;;13.27;76.88;99079.95;108513;1281;22245;-66
2023/04/06 01:42:18;;;;;;;3.20;1.70;;;;;;;13.24;77.01;99078.48;108629;1281;21975;-67
2023/04/06 01:44:44;;;;;;;5.10;1.90;;;;;;;13.24;76.99;99074.25;108491;1281;21981;-73
2023/04/06 01:47:10;;;;;;;6.80;2.00;;;;;;;13.27;76.98;99073.95;108421;1281;22249;-67
2023/04/06 01:49:37;;;;;;;3.70;1.60;;;;;;;13.30;77.25;99072.08;108408;1281;21988;-75
2023/04/06 01:52:03;;;;;;;5.80;2.80;;;;;;;13.32;77.11;99071.08;108429;1281;23771;-75
2023/04/06 01:54:29;;;;;;;3.50;1.40;;;;;;;13.33;76.71;99071.04;108525;1281;23600;-67
2023/04/06 01:56:55;;;;;;;4.90;2.00;;;;;;;13.30;76.31;99070.46;108351;1281;21983;-67
2023/04/06 01:59:21;;;;;;;5.70;2.10;;;;;;;13.28;76.38;99070.93;108408;1281;21986;-68
2023/04/06 02:01:47;;;;;;;5.10;1.80;;;;;;;13.24;76.18;99067.90;108408;1281;21987;-67
2023/04/06 02:04:14;;;;;;;4.40;1.70;;;;;;;13.22;76.14;99065.52;108486;1281;21987;-75
2023/04/06 02:06:40;;;;;;;5.50;1.50;;;;;;;13.22;76.30;99062.55;108491;1281;21987;-67
2023/04/06 02:09:06;;;;;;;4.60;1.50;;;;;;;13.22;76.51;99064.30;107654;1281;1002548;-67
2023/04/06 02:11:31;;;;;;;2.80;1.30;;;;;;;13.22;76.15;99061.30;108438;1281;22009;-67
2023/04/06 02:14:00;;;;;;;4.30;1.90;;;;;;;13.15;75.27;99065.33;108388;1281;21995;-75
2023/04/06 02:16:26;;;;;;;4.70;1.80;;;;;;;13.05;75.06;99068.71;106923;1281;1002611;-67
2023/04/06 02:18:53;;;;;;;3.90;2.10;;;;;;;12.96;74.84;99068.98;108414;1281;22035;-76
2023/04/06 02:21:20;;;;;;;3.50;1.40;;;;;;;12.88;74.65;99069.10;108401;1281;21985;-67
2023/04/06 02:23:47;;;;;;;4.40;1.70;;;;;;;12.83;74.96;99072.87;108456;1281;24166;-76
2023/04/06 02:26:13;;;;;;;5.40;1.80;;;;;;;12.83;75.38;99073.04;108422;1281;24319;-74
2023/04/06 02:28:42;;;;;;;3.00;1.60;;;;;;;12.84;75.57;99072.27;108412;1281;21983;-76
2023/04/06 02:31:09;;;;;;;4.90;2.10;;;;;;;12.82;75.09;99075.87;108414;1281;21990;-76
2023/04/06 02:33:36;;;;;;;3.40;1.70;;;;;;;12.77;75.13;99074.52;108517;1278;22083;-67
2023/04/06 02:36:03;;;;;;;3.10;1.30;;;;;;;12.71;75.03;99072.27;108416;1278;21990;-74
2023/04/06 02:38:30;;;;;;;4.50;1.70;;;;;;;12.67;75.14;99074.93;108446;1281;24393;-66
2023/04/06 02:40:55;;;;;;;4.20;2.20;;;;;;;12.63;75.43;99073.15;108436;1281;21981;-73
2023/04/06 02:43:22;;;;;;;3.00;1.40;;;;;;;12.59;75.63;99073.48;108431;1281;21985;-74
2023/04/06 02:45:48;;;;;;;3.40;1.60;;;;;;;12.56;75.75;99077.34;108427;1281;21988;-73
2023/04/06 02:48:14;;;;;;;3.70;1.80;;;;;;;12.54;75.70;99077.43;108397;1281;23650;-73
2023/04/06 02:50:40;;;;;;;5.60;2.20;;;;;;;12.54;75.86;99081.27;108447;1281;23658;-65
2023/04/06 02:53:06;;;;;;;4.50;2.00;;;;;;;12.55;75.96;99083.15;108416;1281;22326;-71
2023/04/06 02:55:32;;;;;;;3.20;1.30;;;;;;;12.54;75.62;99087.77;108408;1281;21990;-70
2023/04/06 02:57:58;;;;;;;3.80;1.50;;;;;;;12.54;75.65;99088.51;107660;1281;1002508;-71
2023/04/06 03:00:24;;;;;;;3.70;1.70;;;;;;;12.50;75.61;99087.22;108397;1281;21980;-72
2023/04/06 03:02:51;;;;;;;4.50;1.90;;;;;;;12.48;75.55;99089.60;107789;1281;1002820;-64
2023/04/06 03:05:17;;;;;;;3.60;1.70;;;;;;;12.40;75.88;99092.72;108426;1281;23634;-71
2023/04/06 03:07:43;;;;;;;2.80;1.40;;;;;;;12.30;75.83;99095.95;108542;1278;21982;-71
2023/04/06 03:10:14;;;;;;;4.80;1.50;;;;;;;12.18;76.52;99091.48;108517;1281;21988;-70
2023/04/06 03:12:41;;;;;;;3.90;1.40;;;;;;;12.12;76.42;99096.83;108581;1281;21982;-64
2023/04/06 03:15:09;;;;;;;4.20;1.80;;;;;;;12.06;76.83;99098.82;108462;1281;21984;-71
2023/04/06 03:17:36;;;;;;;2.40;1.20;;;;;;;12.03;76.62;99096.61;108482;1270;21980;-70
2023/04/06 03:20:03;;;;;;;3.80;1.50;;;;;;;11.99;77.11;99100.13;108394;1281;23640;-71
2023/04/06 03:22:31;;;;;;;2.40;1.50;;;;;;;11.95;77.08;99100.24;108518;1281;21989;-71
2023/04/06 03:24:58;;;;;;;2.80;1.30;;;;;;;11.91;77.56;99103.04;108554;1278;21980;-65
2023/04/06 03:27:24;;;;;;;4.00;1.30;;;;;;;11.90;77.30;99102.23;108490;1280;21987;-64
2023/04/06 03:29:50;;;;;;;2.10;1.20;;;;;;;11.87;77.39;99106.17;108357;1281;22023;-63
2023/04/06 03:32:16;;;;;;;2.10;1.20;;;;;;;11.88;77.38;99105.26;108849;1281;23641;-69
2023/04/06 03:34:42;;;;;;;2.40;1.30;;;;;;;11.91;77.27;99104.81;108334;1282;21988;-64
2023/04/06 03:37:11;;;;;;;3.60;0.90;;;;;;;12.00;76.68;99112.77;109789;1282;21969;-71
2023/04/06 03:39:37;;;;;;;1.80;0.90;;;;;;;11.97;76.73;99113.57;108507;1281;21990;-63
2023/04/06 03:42:03;;;;;;;1.60;0.90;;;;;;;11.89;77.06;99114.02;108453;1281;21981;-63
2023/04/06 03:44:29;;;;;;;2.60;1.20;;;;;;;11.81;77.80;99114.16;108506;1281;21986;-65
2023/04/06 03:46:58;;;;;;;2.90;1.00;;;;;;;11.81;77.31;99116.60;108491;1281;21980;-65
2023/04/06 03:49:26;;;;;;;3.00;0.90;;;;;;;11.80;77.35;99120.50;108426;1281;22156;-64
2023/04/06 03:51:53;;;;;;;2.90;1.10;;;;;;;11.81;77.53;99125.23;108505;1281;21975;-64
2023/04/06 03:54:18;;;;;;;1.50;0.70;;;;;;;11.70;78.16;99124.38;108498;1281;21981;-65
2023/04/06 03:56:44;;;;;;;3.30;1.10;;;;;;;11.64;78.63;99130.41;108461;1281;22034;-64
2023/04/06 03:59:12;;;;;;;2.60;0.90;;;;;;;11.66;78.16;99134.39;108458;1281;22003;-64
2023/04/06 04:01:40;;;;;;;3.40;1.10;;;;;;;11.66;78.15;99136.14;108451;1281;21988;-70
2023/04/06 04:04:06;;;;;;;2.50;0.70;;;;;;;11.67;78.73;99139.45;108421;1281;22023;-63
2023/04/06 04:06:32;;;;;;;1.50;0.60;;;;;;;11.71;78.08;99136.48;108465;1281;21978;-70
2023/04/06 04:08:58;;;;;;;2.20;0.60;;;;;;;11.74;77.58;99138.29;108534;1281;24021;-70
2023/04/06 04:11:24;;;;;;;1.80;0.70;;;;;;;11.78;77.39;99139.91;108541;1281;21983;-64
2023/04/06 04:13:52;;;;;;;3.70;0.80;;;;;;;11.82;77.47;99139.05;108525;1281;22264;-65
2023/04/06 04:16:23;;;;;;;2.50;0.50;;;;;;;11.83;77.73;99138.84;108500;1281;21980;-65
2023/04/06 04:18:49;;;;;;;1.20;0.70;;;;;;;11.85;77.54;99142.13;107048;1281;1003168;-71
2023/04/06 04:21:16;;;;;;;1.50;0.70;;;;;;;11.84;77.74;99144.43;108718;1277;21978;-71
2023/04/06 04:23:42;;;;;;;2.00;0.70;;;;;;;11.86;77.61;99147.88;108588;1282;21988;-65
2023/04/06 04:26:08;;;;;;;2.20;1.00;;;;;;;11.87;77.45;99150.46;108483;1281;21976;-64
2023/04/06 04:28:35;;;;;;;1.90;1.00;;;;;;;11.89;77.60;99149.17;108564;1281;21979;-63
2023/04/06 04:31:01;;;;;;;2.00;1.00;;;;;;;11.91;77.42;99153.52;108506;1281;23663;-64
2023/04/06 04:33:29;;;;;;;2.60;0.70;;;;;;;11.91;77.61;99155.44;108641;1281;21990;-64
2023/04/06 04:35:55;;;;;;;2.00;0.80;;;;;;;11.92;77.72;99158.92;108551;1281;23644;-70
2023/04/06 04:38:23;;;;;;;2.40;0.90;;;;;;;11.90;78.23;99162.51;108515;1281;21987;-64
2023/04/06 04:40:50;;;;;;;3.30;0.80;;;;;;;11.91;77.84;99163.31;108571;1281;21950;-71
2023/04/06 04:43:18;;;;;;;1.20;0.80;;;;;;;11.96;78.22;99165.81;108448;1281;23714;-64
2023/04/06 04:45:45;;;;;;;2.00;0.90;;;;;;;11.95;78.85;99166.34;108449;1281;23053;-69
2023/04/06 04:48:11;;;;;;;2.80;1.20;;;;;;;11.97;78.80;99168.90;108451;1281;21986;-65
2023/04/06 04:50:37;;;;;;;3.00;1.20;;;;;;;11.97;79.13;99172.62;108394;1281;21982;-64
2023/04/06 04:53:05;;;;;;;0.80;0.60;;;;;;;11.81;78.94;99180.41;108462;1281;21998;-70
2023/04/06 04:55:32;;;;;;;0.40;0.20;;;;;;;11.57;76.92;99189.70;108428;1277;21981;-71
2023/04/06 04:57:58;;;;;;;0.60;0.30;;;;;;;11.27;76.65;99193.35;108437;1281;23440;-70
2023/04/06 05:00:24;;;;;;;0.30;0.20;;;;;;;10.99;77.14;99204.48;108437;1281;23667;-71
2023/04/06 05:02:51;;;;;;;0.70;0.20;;;;;;;10.80;77.74;99212.46;108553;1281;21990;-69
2023/04/06 05:05:17;;;;;;;0.90;0.20;;;;;;;10.45;79.94;99222.82;108441;1281;22155;-64
2023/04/06 05:07:43;;;;;;;0.30;0.30;;;;;;;10.39;79.52;99223.50;108510;1281;21971;-70
2023/04/06 05:10:17;;;;;;;0.30;0.20;;;;;;;10.20;80.67;99235.98;108552;1281;23635;-64
2023/04/06 05:12:42;;;;;;;0.40;0.20;;;;;;;10.16;80.73;99236.95;108460;1281;22816;-64
2023/04/06 05:15:09;;;;;;;0.80;0.40;;;;;;;10.09;80.93;99238.20;108383;1270;22043;-69
2023/04/06 05:17:37;;;;;;;0.40;0.20;;;;;;;9.80;83.43;99247.59;108599;1281;22081;-70
2023/04/06 05:20:04;;;;;;;1.20;0.40;;;;;;;9.75;83.46;99251.77;108312;1281;23712;-64
2023/04/06 05:22:30;;;;;;;0.50;0.30;;;;;;;9.80;82.24;99252.52;108315;1281;23708;-71
2023/04/06 05:24:56;;;;;;;1.50;0.30;;;;;;;9.77;82.62;99256.08;108572;1281;22037;-68
2023/04/06 05:27:22;;;;;;;0.70;0.20;;;;;;;9.60;84.22;99257.42;108373;1281;23650;-69
2023/04/06 05:29:48;;;;;;;0.50;0.30;;;;;;;9.65;83.34;99261.66;108235;1271;21982;-64
2023/04/06 05:32:14;;;;;;;0.50;0.30;;;;;;;9.63;83.35;99266.80;108421;1281;22074;-64
2023/04/06 05:34:40;;;;;;;0.70;0.30;;;;;;;9.70;82.23;99265.73;108494;1281;21969;-71
2023/04/06 05:37:06;;;;;;;0.60;0.40;;;;;;;9.60;83.97;99268.96;108463;1281;21985;-64
2023/04/06 05:39:32;;;;;;;0.90;0.80;;;;;;;9.77;82.75;99273.96;108441;1281;21983;-64
2023/04/06 05:41:57;;;;;;;0.50;0.30;;;;;;;9.81;82.39;99274.03;108409;1274;22069;-70
2023/04/06 05:44:24;;;;;;;0.30;0.30;;;;;;;9.80;82.57;99276.34;108421;1282;21993;-64
2023/04/06 05:46:50;;;;;;;0.70;0.40;;;;;;;9.74;82.92;99285.09;108511;1281;21991;-70
2023/04/06 05:49:17;;;;;;;0.50;0.30;;;;;;;9.85;81.91;99287.60;108492;1281;21980;-64
2023/04/06 05:51:43;;;;;;;1.20;0.50;;;;;;;9.78;83.22;99290.05;108420;1281;21962;-71
2023/04/06 05:54:09;;;;;;;1.70;0.50;;;;;;;9.82;84.09;99290.30;108463;1281;22571;-70
2023/04/06 05:56:35;;;;;;;1.30;0.40;;;;;;;9.93;84.04;99294.20;108498;1281;23631;-70
2023/04/06 05:59:01;;;;;;;1.80;0.40;;;;;;;9.93;85.08;99290.52;108521;1281;21980;-66
2023/04/06 06:01:28;;;;;;;0.90;0.60;;;;;;;9.93;85.14;99294.38;108449;1281;21991;-70
2023/04/06 06:03:55;;;;;;;0.60;0.50;;;;;;;9.93;84.70;99300.34;108572;1281;21977;-65
2023/04/06 06:06:21;;;;;;;1.20;0.60;;;;;;;9.96;85.22;99302.20;108462;1281;21983;-65
2023/04/06 06:08:47;;;;;;;1.00;0.70;;;;;;;9.79;85.95;99304.90;108415;1278;21991;-70
2023/04/06 06:11:16;;;;;;;1.00;0.70;;;;;;;9.97;84.64;99311.09;108481;1281;22018;-71
2023/04/06 06:13:43;;;;;;;1.10;0.80;;;;;;;10.14;83.68;99315.36;108480;1281;21990;-65
2023/04/06 06:16:08;;;;;;;1.70;1.10;;;;;;;10.05;84.43;99319.82;108511;1280;21985;-66
2023/04/06 06:18:36;;;;;;;1.50;0.70;;;;;;;10.09;83.15;99327.09;108485;1277;21988;-66
2023/04/06 06:21:02;;;;;;;1.10;0.90;;;;;;;10.15;82.68;99327.61;108416;1281;23618;-66
2023/04/06 06:23:28;;;;;;;1.00;0.90;;;;;;;10.19;82.47;99333.48;108502;1281;21978;-71
2023/04/06 06:25:56;;;;;;;1.50;1.10;;;;;;;10.25;81.74;99335.77;108454;1281;21982;-71
2023/04/06 06:28:22;;;;;;;1.00;0.60;;;;;;;10.34;81.24;99340.25;108455;1281;21983;-65
2023/04/06 06:30:56;;;;;;;1.90;1.00;;;;;;;10.36;80.60;99343.90;108486;1281;22024;-70
2023/04/06 06:33:23;;;;;;;0.70;0.60;;;;;;;10.39;80.56;99350.48;108407;1281;21981;-71
2023/04/06 06:35:50;;;;;;;1.60;0.80;;;;;;;10.40;80.04;99359.73;108506;1281;23624;-68
2023/04/06 06:38:17;;;;;;;1.00;0.80;;;;;;;10.35;80.27;99367.23;108549;1270;21991;-66
2023/04/06 06:40:43;;;;;;;0.70;0.50;;;;;;;10.36;79.70;99373.14;108390;1281;21989;-71
2023/04/06 06:43:09;;;;;;;0.70;0.60;;;;;;;10.41;79.43;99382.88;108406;1277;22031;-66
2023/04/06 06:45:34;;;;;;;0.80;0.40;;;;;;;10.36;79.38;99388.43;108399;1277;23732;-69
2023/04/06 06:48:02;;;;;;;0.50;0.50;;;;;;;10.28;79.69;99394.77;108529;1281;23596;-67
2023/04/06 06:50:27;;;;;;;0.40;0.40;;;;;;;10.33;79.86;99395.17;108509;1281;21988;-73
2023/04/06 06:52:54;;;;;;;0.80;0.60;;;;;;;10.28;80.00;99397.92;108408;1281;21989;-68
2023/04/06 06:55:20;;;;;;;0.60;0.50;;;;;;;10.27;80.08;99397.95;108429;1281;21995;-72
2023/04/06 06:57:46;;;;;;;2.10;0.70;;;;;;;10.33;80.13;99402.52;108399;1281;21977;-68
2023/04/06 07:00:13;;;;;;;0.80;0.50;;;;;;;10.38;80.22;99407.84;108266;1281;21988;-73
2023/04/06 07:02:47;;;;;;;1.00;0.60;;;;;;;10.37;80.08;99413.65;108446;1281;23601;-69
2023/04/06 07:05:13;;;;;;;1.10;0.40;;;;;;;10.43;79.75;99419.83;108408;1281;21990;-69
2023/04/06 07:07:39;;;;;;;7.80;3.00;;;;;;;10.47;79.98;99422.35;108369;1281;21992;-72
2023/04/06 07:10:05;;;;;;;1.10;0.50;;;;;;;10.53;79.12;99429.89;108406;1281;22018;-72
2023/04/06 07:12:31;;;;;;;2.70;0.80;;;;;;;10.51;78.33;99435.92;108552;1281;21977;-72
2023/04/06 07:14:57;;;;;;;0.60;0.40;;;;;;;10.47;78.05;99446.73;108521;1276;21987;-72
2023/04/06 07:17:23;;;;;;;4.50;1.30;;;;;;;10.46;77.95;99452.55;108383;1281;21986;-69
2023/04/06 07:19:49;;;;;;;4.90;1.60;;;;;;;10.40;77.86;99453.74;108501;1281;23615;-72
2023/04/06 07:22:17;;;;;;;2.80;1.10;;;;;;;10.44;77.98;99461.88;108471;1281;23673;-71
2023/04/06 07:24:43;;;;;;;2.10;0.90;;;;;;;10.46;77.95;99468.69;108348;1281;22024;-71
2023/04/06 07:27:08;;;;;;;6.30;2.00;;;;;;;10.38;79.04;99469.40;108382;1270;22060;-71
2023/04/06 07:29:34;;;;;;;15.30;4.70;;;;;;;10.33;79.04;99474.94;108528;1281;21984;-70
2023/04/06 07:32:02;;;;;;;3.50;1.40;;;;;;;10.33;78.67;99482.13;108446;1281;21981;-69
2023/04/06 07:34:30;;;;;;;5.90;1.60;;;;;;;10.36;78.42;99486.80;108450;1281;23090;-71
2023/04/06 07:36:57;;;;;;;35.80;9.80;;;;;;;10.39;77.86;99491.81;108508;1270;21986;-71
2023/04/06 07:39:26;;;;;;;14.00;3.10;;;;;;;10.41;77.43;99499.66;108521;1281;21983;-69
2023/04/06 07:41:52;;;;;;;24.80;7.10;;;;;;;10.43;77.26;99502.41;108452;1281;21984;-68
2023/04/06 07:44:19;;;;;;;28.80;8.20;;;;;;;10.43;76.94;99507.67;108348;1281;21989;-69
2023/04/06 07:46:45;;;;;;;18.50;5.40;;;;;;;10.38;77.16;99518.52;108492;1278;23595;-69
2023/04/06 07:49:12;;;;;;;27.60;7.90;;;;;;;10.28;76.19;99527.67;108403;1281;21986;-70
2023/04/06 07:51:38;;;;;;;36.40;11.50;;;;;;;10.27;75.22;99528.92;108413;1281;22069;-71
2023/04/06 07:54:05;;;;;;;23.40;7.80;;;;;;;10.17;75.10;99537.24;108460;1281;22015;-69
2023/04/06 07:56:31;;;;;;;22.90;7.20;;;;;;;10.06;75.32;99541.17;108446;1281;22156;-70
2023/04/06 07:58:57;;;;;;;36.20;11.80;;;;;;;10.00;75.33;99546.39;108441;1279;21983;-69
2023/04/06 08:01:27;;;;;;;33.20;11.30;;;;;;;9.96;74.83;99550.33;108519;1281;22055;-70
2023/04/06 08:03:55;;;;;;;23.50;7.70;;;;;;;9.91;74.24;99554.12;108540;1281;22019;-70
2023/04/06 08:06:21;;;;;;;33.40;9.70;;;;;;;9.86;75.65;99562.13;107745;1281;1002432;-69
2023/04/06 08:08:47;;;;;;;33.90;9.90;;;;;;;9.84;75.47;99562.01;108580;1281;22010;-70
2023/04/06 08:11:13;;;;;;;15.00;4.60;;;;;;;9.83;75.92;99567.63;108667;1281;22020;-70
2023/04/06 08:13:39;;;;;;;30.10;8.70;;;;;;;9.87;75.66;99573.85;108511;1281;23741;-69
2023/04/06 08:16:07;;;;;;;21.50;7.20;;;;;;;9.81;76.33;99581.15;108445;1281;21983;-69
2023/04/06 08:18:35;;;;;;;19.10;6.50;;;;;;;9.76;75.59;99585.28;108412;1281;21995;-68
2023/04/06 08:21:01;;;;;;;26.50;7.90;;;;;;;9.74;75.62;99588.33;108445;1281;22016;-71
2023/04/06 08:23:27;;;;;;;23.70;7.50;;;;;;;9.70;75.60;99599.78;108493;1281;21980;-71
2023/04/06 08:25:54;;;;;;;23.00;7.90;;;;;;;9.62;75.46;99608.38;108583;1281;21994;-70
2023/04/06 08:28:22;;;;;;;16.60;5.40;;;;;;;9.59;74.80;99612.45;108395;1281;23240;-69
2023/04/06 08:30:48;;;;;;;24.70;8.70;;;;;;;9.54;75.48;99616.05;108474;1281;21966;-69
2023/04/06 08:33:17;;;;;;;24.20;8.30;;;;;;;9.51;76.18;99618.76;108328;1281;22006;-70
2023/04/06 08:35:43;;;;;;;21.10;7.40;;;;;;;9.47;75.62;99620.39;108470;1281;21980;-71
2023/04/06 08:38:09;;;;;;;17.10;7.00;;;;;;;9.47;75.46;99624.77;108386;1281;21990;-70
2023/04/06 08:40:38;;;;;;;17.20;6.40;;;;;;;9.44;75.74;99631.32;108443;1281;21996;-71
2023/04/06 08:43:08;;;;;;;16.60;6.00;;;;;;;9.44;76.42;99639.36;108463;1281;22037;-70
2023/04/06 08:45:35;;;;;;;16.30;4.80;;;;;;;9.54;76.61;99634.61;108256;1281;21981;-70
2023/04/06 08:48:01;;;;;;;13.30;4.40;;;;;;;9.61;76.84;99636.92;108412;1281;24221;-71
2023/04/06 08:50:29;;;;;;;11.30;3.80;;;;;;;9.70;76.22;99636.40;108357;1282;22026;-70
2023/04/06 08:52:55;;;;;;;13.50;4.70;;;;;;;9.75;76.65;99644.20;108532;1281;21993;-69
2023/04/06 08:55:22;;;;;;;9.10;3.50;;;;;;;9.85;76.61;99645.38;107710;1281;1002802;-69
2023/04/06 08:57:48;;;;;;;6.10;2.60;;;;;;;9.93;76.95;99649.77;108522;1281;21977;-70
2023/04/06 09:00:15;;;;;;;15.20;5.70;;;;;;;10.04;75.82;99651.81;108412;1281;21985;-70
2023/04/06 09:02:43;;;;;;;22.60;9.90;;;;;;;10.03;75.28;99656.92;108471;1281;22000;-70
2023/04/06 09:05:10;;;;;;;12.40;6.30;;;;;;;9.98;74.45;99659.48;108378;1281;21981;-70
2023/04/06 09:07:38;;;;;;;29.60;14.80;;;;;;;9.92;74.30;99665.02;108545;1278;21977;-70
2023/04/06 09:10:08;;;;;;;41.40;17.20;;;;;;;9.89;74.47;99668.61;108236;1281;21991;-69
2023/04/06 09:12:37;;;;;;;27.30;14.50;;;;;;;9.83;74.90;99673.63;108621;1281;23719;-69
2023/04/06 09:15:04;;;;;;;19.20;10.10;;;;;;;9.84;74.61;99678.88;108550;1281;21986;-70
2023/04/06 09:17:36;;;;;;;8.40;4.20;;;;;;;9.87;76.09;99676.71;108387;1281;21999;-69
2023/04/06 09:20:02;;;;;;;9.80;4.70;;;;;;;9.96;76.07;99676.34;108463;1281;21991;-69
2023/04/06 09:22:38;;;;;;;12.80;7.60;;;;;;;10.00;74.91;99681.35;108466;1281;21994;-69
2023/04/06 09:25:06;;;;;;;18.00;9.10;;;;;;;10.05;74.33;99685.64;108416;1281;21982;-69
2023/04/06 09:27:34;;;;;;;22.80;10.90;;;;;;;10.12;73.99;99694.23;108472;1281;21980;-69
2023/04/06 09:30:13;;;;;;;18.70;9.70;;;;;;;10.05;72.89;99697.02;108770;1281;23027;-71
2023/04/06 09:36:11;;;;;;;5.90;2.70;;;;;;;10.14;73.12;99706.13;107951;1276;544176;-67
2023/04/06 09:38:50;;;;;;;3.60;2.10;;;;;;;10.18;72.80;99706.73;107999;1289;22519;-67
2023/04/06 09:41:23;;;;;;;4.80;2.60;;;;;;;10.15;72.24;99708.88;107920;1289;21992;-68
2023/04/06 09:43:51;;;;;;;4.50;2.20;;;;;;;10.10;71.66;99714.10;108009;1289;21993;-68
2023/04/06 09:46:18;;;;;;;4.40;2.70;;;;;;;10.07;71.38;99720.98;107822;1289;23646;-67
2023/04/06 09:48:43;;;;;;;3.70;1.70;;;;;;;9.99;71.68;99725.19;107918;1287;140226;-68
2023/04/06 09:51:10;;;;;;;2.80;1.80;;;;;;;10.10;73.10;99726.89;107710;1287;21996;-67
2023/04/06 09:53:38;;;;;;;3.30;1.90;;;;;;;10.17;72.89;99729.02;107753;1287;23612;-67
2023/04/06 09:56:04;;;;;;;2.10;1.40;;;;;;;10.10;72.04;99730.05;108244;1283;21999;-67
2023/04/06 09:58:34;;;;;;;4.50;2.90;;;;;;;10.16;71.75;99737.64;108132;1287;21991;-68
2023/04/06 10:01:07;;;;;;;3.50;2.40;;;;;;;10.24;72.20;99741.33;108082;1287;21991;-68
2023/04/06 10:03:50;;;;;;;5.70;4.00;;;;;;;10.27;71.92;99740.02;108081;1287;21985;-66
2023/04/06 10:06:16;;;;;;;6.70;3.70;;;;;;;10.20;70.95;99747.55;108177;1287;21977;-67
2023/04/06 10:08:42;;;;;;;10.20;6.20;;;;;;;10.21;70.61;99751.73;107987;1287;21992;-67
2023/04/06 10:11:11;;;;;;;9.60;5.80;;;;;;;10.19;69.88;99754.91;107984;1287;21995;-68
2023/04/06 10:13:38;;;;;;;8.70;4.70;;;;;;;10.24;69.73;99763.06;108127;1287;21990;-68
2023/04/06 10:16:05;;;;;;;6.50;4.00;;;;;;;10.24;69.87;99772.02;108057;1287;22009;-67
2023/04/06 10:18:32;;;;;;;10.50;4.80;;;;;;;10.27;69.60;99773.01;107979;1287;22036;-67
2023/04/06 10:21:09;;;;;;;6.00;3.30;;;;;;;10.27;69.59;99776.15;108143;1287;21991;-67
2023/04/06 10:23:46;;;;;;;4.00;2.80;;;;;;;10.29;70.21;99778.76;108138;1279;21987;-67
2023/04/06 10:26:15;;;;;;;2.40;1.40;;;;;;;10.36;69.66;99784.23;108209;1287;23060;-67
2023/04/06 10:28:41;;;;;;;2.00;1.50;;;;;;;10.28;69.43;99790.16;108360;1283;22009;-67
2023/04/06 10:31:07;;;;;;;3.60;2.20;;;;;;;10.22;68.65;99797.98;107931;1287;21985;-67
2023/04/06 10:33:34;;;;;;;2.30;1.70;;;;;;;10.20;68.35;99795.06;108050;1287;22028;-67
2023/04/06 10:36:22;;;;;;;2.10;1.40;;;;;;;10.21;68.82;99789.42;108080;1284;21983;-67
2023/04/06 10:38:59;;;;;;;2.00;1.60;;;;;;;10.23;69.19;99789.55;108179;1287;22954;-67
2023/04/06 10:41:41;;;;;;;1.70;1.20;;;;;;;10.29;69.13;99793.48;107996;1287;21984;-67
2023/04/06 10:44:07;;;;;;;1.90;1.20;;;;;;;10.30;68.92;99800.65;107918;1287;22001;-67
2023/04/06 10:46:33;;;;;;;1.40;1.00;;;;;;;10.34;69.41;99802.34;108128;1287;22460;-67
2023/04/06 10:49:11;;;;;;;2.20;1.20;;;;;;;10.36;69.40;99806.15;108036;1287;21998;-67
2023/04/06 10:51:37;;;;;;;2.10;1.20;;;;;;;10.32;68.44;99816.92;108107;1285;22049;-68
2023/04/06 10:54:05;;;;;;;1.60;1.30;;;;;;;10.35;69.38;99821.77;108191;1287;21991;-67
2023/04/06 10:56:31;;;;;;;2.40;1.40;;;;;;;10.44;69.83;99834.08;107927;1287;21996;-68
2023/04/06 10:58:57;;;;;;;1.60;1.20;;;;;;;10.37;68.91;99835.58;107720;1283;23686;-68
2023/04/06 11:01:24;;;;;;;11.60;4.30;;;;;;;10.38;69.27;99829.63;108048;1283;21996;-64
2023/04/06 11:03:53;;;;;;;2.20;1.40;;;;;;;10.43;69.63;99832.50;108156;1287;21999;-68
2023/04/06 11:06:20;;;;;;;1.80;1.20;;;;;;;10.40;69.98;99837.29;108107;1287;22002;-68
2023/04/06 11:08:48;;;;;;;1.60;1.30;;;;;;;10.49;69.20;99844.66;108134;1287;21991;-68
2023/04/06 11:11:15;;;;;;;1.90;1.40;;;;;;;10.48;69.56;99851.86;108094;1287;23399;-68
2023/04/06 11:13:53;;;;;;;1.40;1.00;;;;;;;10.60;69.70;99856.53;107938;1287;21984;-68
2023/04/06 11:16:21;;;;;;;1.80;1.10;;;;;;;10.65;68.87;99861.70;108217;1287;24340;-68
2023/04/06 11:18:58;;;;;;;1.70;1.20;;;;;;;10.67;68.93;99870.25;108146;1287;22148;-68
2023/04/06 11:21:41;;;;;;;1.60;1.30;;;;;;;10.65;68.61;99875.21;108174;1287;22007;-68
2023/04/06 11:24:12;;;;;;;1.30;1.00;;;;;;;10.69;69.15;99879.89;108142;1287;22019;-68
2023/04/06 11:26:41;;;;;;;1.40;1.10;;;;;;;10.70;68.67;99885.30;108218;1287;22963;-69
2023/04/06 11:29:07;;;;;;;1.50;1.20;;;;;;;10.75;67.91;99886.06;108203;1287;22005;-68